Crater Lake National Park, OR

11:14 PM PST on February 05, 2016 (GMT -0800)
Williamson River at Hexagenia Ranch | | Change Station
CLOSE
Current Station
Personal Weather Station
Location: Chiloquin, OR
Elevation: 4163 ft
Nearby Weather Stations

Elev 4163 ft 42.54 °N, 121.88 °W | Updated 12 seconds ago

Mostly Cloudy
Mostly Cloudy
31.5 °F
Feels Like 32 °F
N
0.4
Wind Variable Wind from South
Gusts 2.5 mph

Today
High -- | Low -- °F
--% Chance of Precip.
Yesterday
High -- | Low -- °F
Precip. -- in
Pressure 30.40 in
Visibility 10.0 miles
Clouds Clear
Windchill 32 °F
Dew Point 25 °F
Humidity 77%
Rainfall 0.00 in
Snow Depth Not available.
7:17 AM 5:25 PM
Waning Crescent, 7% visible
METAR KLMT 060653Z AUTO 18005KT 10SM CLR 03/M01 A3036 RMK AO2 SLP295 T00281011
Pressure 30.40 in
Visibility 10.0 miles
Clouds Clear
Windchill 32 °F
Dew Point 25 °F
Humidity 77%
Rainfall 0.00 in
Snow Depth Not available.
7:17 AM 5:25 PM
Waning Crescent, 7% visible
METAR KLMT 060653Z AUTO 18005KT 10SM CLR 03/M01 A3036 RMK AO2 SLP295 T00281011

10-Day Weather Forecast

Almanac

Astronomy

Feb. 05, 2016 Rise Set
Actual Time
Civil Twilight
Nautical Twilight
Astronomical Twilight
Moon
Length of Visible Light
Length of Day
Tomorrow will be .
, % of the Moon is Illuminated

Today's Extremes

State Highs State Lows

Community

WunderPhotos

Upload Photos

1,890,932 photos uploaded!

WunderBlog® & News

Nearby

Air Quality

  Air Quality AQ Index Pollutant
Not available.

Snow Depth

Station Depth Elevation

Earthquake Activity

City Distance Mag. Time & Date
Minimum magnitude displayed is 2.5.

Coastal Water Temperatures

Place Temperature

Stations

Nearby Weather Stations

Station Location Temp. Windchill Dew Point Humidity Wind Precip. Elev Updated Type
                   

Watches & Warnings

There are currently no watches in effect.